Time;durP1;ratioP1;P1;durP2;ratioP2;P2;SDS_P1;SDS_P2;PMS_P1;PMS_P2;Temp;Humidity;BMP_temperature;BMP_pressure;BME280_temperature;BME280_humidity;BME280_pressure;Samples;Min_cycle;Max_cycle;Signal;HPM_P1;HPM_P2
2022/09/17 00:00:22;;;;;;;2.13;1.80;;;;;;;21.12;nan;-24404.28;5031935;28;20659;-69
2022/09/17 00:02:54;;;;;;;2.22;1.80;;;;;;;21.00;nan;-24400.94;5031599;28;20231;-69
2022/09/17 00:05:23;;;;;;;4.60;2.35;;;;;;;21.01;nan;-24401.22;5031568;28;20168;-69
2022/09/17 00:07:51;;;;;;;2.67;1.75;;;;;;;21.04;nan;-24401.91;5031606;28;20575;-69
2022/09/17 00:10:18;;;;;;;2.55;1.75;;;;;;;21.13;nan;-24404.41;5031874;28;20203;-70
2022/09/17 00:12:45;;;;;;;3.80;1.95;;;;;;;21.13;nan;-24404.41;5031245;28;20583;-69
2022/09/17 00:15:10;;;;;;;3.83;1.77;;;;;;;20.94;nan;-24399.28;5034796;28;20167;-67
2022/09/17 00:17:36;;;;;;;2.40;1.63;;;;;;;21.09;nan;-24403.44;5035631;28;20529;-69
2022/09/17 00:20:03;;;;;;;4.70;1.60;;;;;;;20.87;nan;-24397.19;5035686;28;20674;-68
2022/09/17 00:22:29;;;;;;;2.65;1.60;;;;;;;20.92;nan;-24398.59;5035786;28;20195;-69
2022/09/17 00:24:54;;;;;;;2.28;1.50;;;;;;;20.60;nan;-24389.84;5035584;28;20704;-69
2022/09/17 00:27:20;;;;;;;2.17;1.70;;;;;;;20.81;nan;-24395.66;5035422;28;20172;-69
2022/09/17 00:29:47;;;;;;;1.70;1.50;;;;;;;20.48;nan;-24386.53;5035543;28;20174;-70
2022/09/17 00:32:12;;;;;;;3.75;1.73;;;;;;;20.79;nan;-24394.97;5035633;28;20645;-69
2022/09/17 00:34:38;;;;;;;3.88;1.90;;;;;;;20.39;nan;-24384.16;5035209;28;20199;-71
2022/09/17 00:37:03;;;;;;;1.88;1.45;;;;;;;20.71;nan;-24392.91;5035869;28;20163;-70
2022/09/17 00:39:28;;;;;;;2.20;1.77;;;;;;;20.70;nan;-24392.63;5035418;28;20172;-71
2022/09/17 00:41:54;;;;;;;2.22;1.80;;;;;;;20.41;nan;-24384.72;5035472;28;20174;-70
2022/09/17 00:44:48;;;;;;;1.48;1.33;;;;;;;20.55;nan;-24388.47;5035077;28;20308;-70
2022/09/17 00:47:38;;;;;;;2.88;2.10;;;;;;;20.40;nan;-24384.44;5035052;28;20214;-70
2022/09/17 00:50:29;;;;;;;3.05;1.70;;;;;;;20.41;nan;-24384.56;5032179;28;20191;-69
2022/09/17 00:53:21;;;;;;;3.33;1.70;;;;;;;20.35;nan;-24383.03;5035118;28;20187;-69
2022/09/17 00:55:47;;;;;;;1.48;1.38;;;;;;;20.30;nan;-24381.66;5033595;28;20223;-70
2022/09/17 00:58:17;;;;;;;2.58;1.80;;;;;;;19.87;nan;-24369.84;5034930;28;20634;-71
2022/09/17 01:00:45;;;;;;;3.03;1.80;;;;;;;20.21;nan;-24379.28;5035012;28;20243;-69
2022/09/17 01:03:10;;;;;;;4.60;1.90;;;;;;;19.98;nan;-24372.91;5033145;28;20601;-69
2022/09/17 01:05:52;;;;;;;2.63;1.85;;;;;;;20.02;nan;-24374.00;5034768;28;20160;-69
2022/09/17 01:08:40;;;;;;;2.10;1.48;;;;;;;19.98;nan;-24372.75;5034951;28;20199;-69
2022/09/17 01:11:29;;;;;;;2.42;1.90;;;;;;;19.94;nan;-24371.66;5034832;28;20646;-71
2022/09/17 01:14:13;;;;;;;3.00;1.88;;;;;;;19.96;nan;-24372.22;5034889;28;20213;-69
2022/09/17 01:17:09;;;;;;;3.53;2.35;;;;;;;19.91;nan;-24370.97;5034890;28;20638;-69
2022/09/17 01:19:51;;;;;;;3.13;1.88;;;;;;;19.65;nan;-24363.72;5035443;28;20567;-69
2022/09/17 01:22:22;;;;;;;3.33;2.00;;;;;;;19.75;nan;-24366.66;5033143;28;20258;-70
2022/09/17 01:25:11;;;;;;;4.22;1.85;;;;;;;19.67;nan;-24364.44;5034115;28;20179;-69
2022/09/17 01:27:58;;;;;;;6.63;2.13;;;;;;;19.78;nan;-24367.34;5034400;28;20195;-70
2022/09/17 01:30:56;;;;;;;5.00;2.17;;;;;;;19.83;nan;-24368.72;5034659;28;20704;-69
2022/09/17 01:33:29;;;;;;;3.28;1.85;;;;;;;19.67;nan;-24364.28;5032335;28;20226;-71
2022/09/17 01:36:12;;;;;;;3.15;2.10;;;;;;;19.55;nan;-24360.94;5032840;28;20622;-69
2022/09/17 01:38:52;;;;;;;4.60;1.65;;;;;;;19.45;nan;-24358.31;5034218;28;20257;-70
2022/09/17 01:41:34;;;;;;;3.65;2.20;;;;;;;19.19;nan;-24351.22;5034225;28;20224;-68
2022/09/17 01:44:14;;;;;;;2.13;1.88;;;;;;;19.61;nan;-24362.63;5034090;28;20175;-70
2022/09/17 01:46:50;;;;;;;3.95;2.15;;;;;;;19.42;nan;-24357.59;5034224;28;20175;-69
2022/09/17 01:49:16;;;;;;;3.15;2.05;;;;;;;19.12;nan;-24349.13;5034347;28;20170;-69
2022/09/17 01:51:47;;;;;;;2.33;2.03;;;;;;;19.11;nan;-24348.84;5033728;28;20171;-68
2022/09/17 01:55:01;;;;;;;3.80;1.90;;;;;;;19.17;nan;-24350.66;5034001;28;20230;-68
2022/09/17 01:57:32;;;;;;;7.47;2.20;;;;;;;18.94;nan;-24344.25;5024852;28;20195;-68
2022/09/17 02:00:05;;;;;;;1.92;1.65;;;;;;;18.62;nan;-24335.47;5033847;28;20168;-69
2022/09/17 02:02:53;;;;;;;2.03;1.70;;;;;;;18.70;nan;-24337.72;5034001;28;20273;-68
2022/09/17 02:05:23;;;;;;;3.72;2.00;;;;;;;18.42;nan;-24329.91;5033353;28;20195;-69
2022/09/17 02:08:10;;;;;;;3.10;1.70;;;;;;;18.60;nan;-24334.91;5033954;28;20174;-68
2022/09/17 02:11:05;;;;;;;3.15;2.03;;;;;;;18.73;nan;-24338.41;5033532;28;20757;-67
2022/09/17 02:13:37;;;;;;;2.15;1.73;;;;;;;18.73;nan;-24338.41;5033417;28;20194;-69
2022/09/17 02:16:20;;;;;;;3.17;1.85;;;;;;;18.69;nan;-24337.28;5033728;28;20174;-68
2022/09/17 02:19:11;;;;;;;2.67;1.73;;;;;;;18.63;nan;-24335.75;5033530;28;20174;-68
2022/09/17 02:21:44;;;;;;;4.70;1.92;;;;;;;18.42;nan;-24330.03;5033320;28;20164;-67
2022/09/17 02:24:30;;;;;;;2.67;1.80;;;;;;;18.38;nan;-24328.78;5033243;28;20660;-67
2022/09/17 02:26:57;;;;;;;2.60;2.00;;;;;;;18.63;nan;-24335.63;5033680;28;20167;-69
2022/09/17 02:29:32;;;;;;;4.30;2.28;;;;;;;18.46;nan;-24331.00;5033030;28;20254;-69
2022/09/17 02:31:58;;;;;;;2.10;1.80;;;;;;;18.62;nan;-24335.47;5032381;28;20181;-68
2022/09/17 02:34:26;;;;;;;3.45;1.90;;;;;;;18.72;nan;-24338.25;5041708;28;20199;-70
2022/09/17 02:36:53;;;;;;;3.28;2.30;;;;;;;18.62;nan;-24335.34;5021914;28;20627;-68
2022/09/17 02:39:18;;;;;;;3.20;1.85;;;;;;;18.61;nan;-24335.19;5020101;28;20175;-68
2022/09/17 02:42:09;;;;;;;1.80;1.70;;;;;;;18.20;nan;-24323.91;5031168;28;20257;-69
2022/09/17 02:44:56;;;;;;;3.80;1.80;;;;;;;18.58;nan;-24334.22;5030411;28;20205;-67
2022/09/17 02:47:31;;;;;;;2.45;1.73;;;;;;;18.39;nan;-24329.06;5030693;28;20191;-68
2022/09/17 02:50:13;;;;;;;3.03;2.15;;;;;;;18.25;nan;-24325.31;5027902;28;20190;-67
2022/09/17 02:52:44;;;;;;;5.15;2.17;;;;;;;18.32;nan;-24327.25;5029120;28;20267;-69
2022/09/17 02:55:32;;;;;;;3.15;2.20;;;;;;;18.46;nan;-24331.00;5039244;28;20262;-68
2022/09/17 02:58:01;;;;;;;3.25;2.10;;;;;;;18.51;nan;-24332.56;5036707;28;20194;-69
2022/09/17 03:00:27;;;;;;;3.28;1.80;;;;;;;18.55;nan;-24333.53;5038701;28;20649;-67
2022/09/17 03:03:21;;;;;;;3.55;2.38;;;;;;;18.21;nan;-24324.06;5039023;28;20219;-68
2022/09/17 03:05:47;;;;;;;1.65;1.50;;;;;;;18.35;nan;-24327.94;5038928;28;20179;-69
2022/09/17 03:08:13;;;;;;;3.50;2.03;;;;;;;18.33;nan;-24327.41;5040532;28;20215;-68
2022/09/17 03:10:40;;;;;;;4.20;2.45;;;;;;;18.47;nan;-24331.44;5025272;28;20178;-67
2022/09/17 03:13:05;;;;;;;3.13;2.10;;;;;;;18.54;nan;-24333.25;5038442;28;20278;-67
2022/09/17 03:15:31;;;;;;;2.35;1.73;;;;;;;18.30;nan;-24326.69;5041052;28;20638;-67
2022/09/17 03:17:56;;;;;;;5.18;2.38;;;;;;;18.59;nan;-24334.50;5026449;28;20188;-66
2022/09/17 03:20:22;;;;;;;3.25;2.10;;;;;;;17.73;nan;-24310.81;5029510;28;21128;-66
2022/09/17 03:22:47;;;;;;;2.80;1.83;;;;;;;18.43;nan;-24330.31;5040624;28;20199;-70
2022/09/17 03:25:13;;;;;;;2.88;1.88;;;;;;;18.28;nan;-24326.13;5023397;28;20172;-70
2022/09/17 03:27:38;;;;;;;3.30;2.10;;;;;;;18.59;nan;-24334.50;5039477;28;20183;-67
2022/09/17 03:30:05;;;;;;;7.68;2.17;;;;;;;18.51;nan;-24332.56;5038583;28;20568;-67
2022/09/17 03:32:31;;;;;;;2.10;1.77;;;;;;;18.75;nan;-24338.97;5031922;28;20178;-68
2022/09/17 03:34:57;;;;;;;3.92;2.20;;;;;;;17.88;nan;-24315.00;5034549;28;20654;-68
2022/09/17 03:37:22;;;;;;;3.22;1.88;;;;;;;18.44;nan;-24330.47;5039157;28;20278;-68
2022/09/17 03:39:48;;;;;;;3.63;2.05;;;;;;;18.38;nan;-24328.94;5039850;28;20182;-69
2022/09/17 03:42:13;;;;;;;2.05;1.80;;;;;;;18.54;nan;-24333.38;5040066;28;20724;-70
2022/09/17 03:44:38;;;;;;;2.33;2.00;;;;;;;18.43;nan;-24330.19;5040484;28;20175;-68
2022/09/17 03:47:04;;;;;;;2.92;2.00;;;;;;;18.25;nan;-24325.31;5022868;28;20647;-69
2022/09/17 03:49:29;;;;;;;2.28;2.03;;;;;;;18.17;nan;-24323.06;5011630;28;20226;-68
2022/09/17 03:51:55;;;;;;;3.85;2.10;;;;;;;18.29;nan;-24326.28;5024795;28;20274;-69
2022/09/17 03:54:20;;;;;;;2.70;2.17;;;;;;;18.21;nan;-24324.19;5031591;28;20206;-70
2022/09/17 03:56:46;;;;;;;4.78;2.13;;;;;;;18.29;nan;-24326.41;5031972;28;20171;-69
2022/09/17 03:59:11;;;;;;;4.38;1.95;;;;;;;18.07;nan;-24320.44;5032189;28;20172;-70
2022/09/17 04:01:36;;;;;;;3.75;2.40;;;;;;;17.90;nan;-24315.69;5031581;28;20171;-68
2022/09/17 04:04:03;;;;;;;5.55;2.05;;;;;;;18.04;nan;-24319.44;5031719;28;20635;-68
2022/09/17 04:06:28;;;;;;;6.30;2.08;;;;;;;17.56;nan;-24306.34;5032149;28;20179;-68
2022/09/17 04:08:55;;;;;;;2.95;2.20;;;;;;;17.83;nan;-24313.59;5014357;28;20262;-67
2022/09/17 04:11:21;;;;;;;4.00;1.90;;;;;;;17.70;nan;-24310.13;5031777;28;20199;-69
2022/09/17 04:13:47;;;;;;;3.70;1.80;;;;;;;17.70;nan;-24310.13;5031838;28;20195;-69
2022/09/17 04:16:13;;;;;;;3.05;2.15;;;;;;;17.76;nan;-24311.78;5030850;28;20186;-70
2022/09/17 04:18:39;;;;;;;3.20;2.15;;;;;;;17.51;nan;-24304.81;5031875;28;20222;-68
2022/09/17 04:21:05;;;;;;;3.50;2.10;;;;;;;17.39;nan;-24301.44;5030270;28;20210;-71
2022/09/17 04:23:30;;;;;;;2.78;2.00;;;;;;;17.87;nan;-24314.72;5032076;28;20171;-67
2022/09/17 04:25:55;;;;;;;5.78;2.60;;;;;;;17.83;nan;-24313.59;5030630;28;20225;-68
2022/09/17 04:28:21;;;;;;;2.13;1.83;;;;;;;17.86;nan;-24314.44;5031621;28;20593;-68
2022/09/17 04:30:47;;;;;;;3.55;2.10;;;;;;;18.24;nan;-24325.03;5031592;28;20598;-66
2022/09/17 04:33:13;;;;;;;2.90;2.13;;;;;;;18.22;nan;-24324.47;5030888;28;20577;-70
2022/09/17 04:35:38;;;;;;;2.92;1.80;;;;;;;18.51;nan;-24332.56;5031326;28;20171;-68
2022/09/17 04:38:03;;;;;;;2.90;2.00;;;;;;;18.12;nan;-24321.53;5032072;28;20250;-69
2022/09/17 04:40:29;;;;;;;5.43;3.08;;;;;;;18.06;nan;-24320.00;5030983;28;20711;-68
2022/09/17 04:42:58;;;;;;;4.70;2.15;;;;;;;18.05;nan;-24319.88;5033032;28;20190;-70
2022/09/17 04:45:24;;;;;;;3.53;2.25;;;;;;;18.54;nan;-24333.38;5033537;28;20769;-67
2022/09/17 04:47:49;;;;;;;2.42;1.88;;;;;;;18.66;nan;-24336.44;5037566;28;21096;-67
2022/09/17 04:50:17;;;;;;;4.22;2.03;;;;;;;18.86;nan;-24342.16;5030175;28;20270;-68
2022/09/17 04:52:44;;;;;;;2.35;1.88;;;;;;;19.00;nan;-24345.91;5040162;28;20184;-66
2022/09/17 04:55:09;;;;;;;3.92;2.30;;;;;;;18.85;nan;-24341.75;5035692;28;20584;-66
2022/09/17 04:57:35;;;;;;;2.42;1.88;;;;;;;19.03;nan;-24346.75;5037702;28;20634;-65
2022/09/17 05:00:01;;;;;;;9.32;3.35;;;;;;;19.35;nan;-24355.66;5029367;28;20229;-63
2022/09/17 05:02:26;;;;;;;6.65;2.20;;;;;;;19.17;nan;-24350.50;5034636;28;20604;-65
2022/09/17 05:04:52;;;;;;;2.35;1.80;;;;;;;19.44;nan;-24358.03;5039797;28;20182;-65
2022/09/17 05:07:18;;;;;;;4.63;2.33;;;;;;;19.64;nan;-24363.44;5039551;28;20179;-67
2022/09/17 05:09:43;;;;;;;3.42;2.17;;;;;;;19.65;nan;-24363.88;5024783;28;20180;-67
2022/09/17 05:12:08;;;;;;;3.15;2.28;;;;;;;19.69;nan;-24364.84;5041806;28;20720;-71
2022/09/17 05:14:34;;;;;;;2.35;1.80;;;;;;;19.75;nan;-24366.66;5040061;28;20191;-70
2022/09/17 05:16:59;;;;;;;2.58;1.90;;;;;;;20.12;nan;-24376.66;5041166;28;20278;-69
2022/09/17 05:19:25;;;;;;;3.22;2.10;;;;;;;20.19;nan;-24378.59;5046812;28;20241;-69
2022/09/17 05:21:50;;;;;;;5.78;2.22;;;;;;;20.17;nan;-24378.19;5042681;28;20163;-67
2022/09/17 05:24:16;;;;;;;7.55;1.90;;;;;;;20.21;nan;-24379.16;5037512;28;20740;-66
2022/09/17 05:26:41;;;;;;;4.28;1.85;;;;;;;20.12;nan;-24376.66;5033553;28;20256;-68
2022/09/17 05:29:07;;;;;;;5.65;2.13;;;;;;;20.09;nan;-24375.81;5050642;28;20242;-68
2022/09/17 05:31:32;;;;;;;6.43;2.63;;;;;;;20.62;nan;-24390.41;5033993;28;20172;-65
2022/09/17 05:33:58;;;;;;;5.00;2.40;;;;;;;20.41;nan;-24384.56;5031616;28;20204;-65
2022/09/17 05:36:24;;;;;;;3.38;2.10;;;;;;;20.79;nan;-24394.97;5033270;28;20172;-67
2022/09/17 05:38:49;;;;;;;3.47;2.33;;;;;;;20.89;nan;-24397.91;5033615;28;20164;-68
2022/09/17 05:41:15;;;;;;;5.28;3.13;;;;;;;21.22;nan;-24406.91;5033556;28;20174;-65
2022/09/17 05:43:42;;;;;;;9.13;3.80;;;;;;;21.02;nan;-24401.34;5033522;28;20179;-66
2022/09/17 05:46:07;;;;;;;3.92;2.20;;;;;;;21.33;nan;-24409.81;5033609;28;20187;-66
2022/09/17 05:48:33;;;;;;;7.05;2.42;;;;;;;21.24;nan;-24407.31;5033542;28;20167;-67
2022/09/17 05:50:58;;;;;;;4.75;2.25;;;;;;;21.04;nan;-24402.06;5033192;28;20359;-65
2022/09/17 05:53:24;;;;;;;3.03;1.83;;;;;;;20.85;nan;-24396.66;5033539;28;20291;-68
2022/09/17 05:55:49;;;;;;;5.93;1.90;;;;;;;21.34;nan;-24410.25;5033546;28;20175;-66
2022/09/17 05:58:17;;;;;;;2.35;1.73;;;;;;;21.10;nan;-24403.72;5033436;28;20578;-67
2022/09/17 06:00:45;;;;;;;2.42;2.03;;;;;;;21.55;nan;-24415.91;5033238;28;20167;-65
2022/09/17 06:03:12;;;;;;;1.83;1.50;;;;;;;21.94;nan;-24426.72;5032580;28;20227;-67
2022/09/17 06:05:38;;;;;;;3.67;2.35;;;;;;;21.88;nan;-24425.06;5043453;28;20250;-68
2022/09/17 06:08:04;;;;;;;3.83;1.70;;;;;;;22.23;nan;-24434.47;5041780;28;20226;-66
2022/09/17 06:10:30;;;;;;;2.17;1.90;;;;;;;22.56;nan;-24443.59;5041649;28;20617;-66
2022/09/17 06:12:58;;;;;;;4.85;2.42;;;;;;;22.51;nan;-24442.22;5037626;28;20195;-69
2022/09/17 06:15:26;;;;;;;2.92;2.38;;;;;;;23.05;nan;-24457.03;5032557;28;20171;-65
2022/09/17 06:17:51;;;;;;;3.20;2.08;;;;;;;22.98;nan;-24454.94;5051966;28;20194;-66
2022/09/17 06:20:17;;;;;;;2.75;1.77;;;;;;;23.45;nan;-24467.78;5052228;28;20170;-66
2022/09/17 06:22:43;;;;;;;2.00;1.73;;;;;;;23.77;nan;-24476.63;5052487;28;20201;-65
2022/09/17 06:25:08;;;;;;;3.50;2.00;;;;;;;24.04;nan;-24483.94;5052568;28;20245;-67
2022/09/17 06:27:34;;;;;;;2.88;2.15;;;;;;;23.98;nan;-24482.28;5052803;28;20174;-68
2022/09/17 06:30:00;;;;;;;4.55;2.38;;;;;;;23.54;nan;-24470.41;5052259;28;20232;-68
2022/09/17 06:32:26;;;;;;;3.13;1.98;;;;;;;23.47;nan;-24468.34;5052635;28;20306;-68
2022/09/17 06:34:52;;;;;;;3.25;2.33;;;;;;;23.19;nan;-24460.88;5051269;28;20687;-66
2022/09/17 06:37:18;;;;;;;3.42;2.05;;;;;;;23.02;nan;-24456.06;5052448;28;20182;-67
2022/09/17 06:39:44;;;;;;;3.85;2.03;;;;;;;23.10;nan;-24458.25;5052312;28;20620;-68
2022/09/17 06:42:11;;;;;;;4.50;2.05;;;;;;;23.06;nan;-24457.16;5052349;28;20175;-65
2022/09/17 06:44:37;;;;;;;1.75;1.60;;;;;;;22.76;nan;-24449.00;5052078;28;20634;-69
2022/09/17 06:47:02;;;;;;;2.47;1.75;;;;;;;23.10;nan;-24458.41;5034025;28;20178;-69
2022/09/17 06:49:29;;;;;;;2.30;1.80;;;;;;;23.26;nan;-24462.69;5052148;28;20171;-70
2022/09/17 06:51:55;;;;;;;3.40;1.80;;;;;;;23.43;nan;-24467.25;5051737;28;20613;-67
2022/09/17 06:54:21;;;;;;;3.63;2.13;;;;;;;23.34;nan;-24465.03;5051411;28;20203;-68
2022/09/17 06:56:46;;;;;;;2.97;1.95;;;;;;;23.53;nan;-24470.16;5051834;28;20175;-68
2022/09/17 06:59:13;;;;;;;4.43;2.08;;;;;;;23.77;nan;-24476.63;5052117;28;20685;-67
2022/09/17 07:01:38;;;;;;;3.92;1.95;;;;;;;23.60;nan;-24471.94;5051497;28;20208;-67
2022/09/17 07:04:04;;;;;;;2.58;1.75;;;;;;;23.95;nan;-24481.59;5052023;28;20252;-68
2022/09/17 07:06:29;;;;;;;6.40;1.95;;;;;;;24.11;nan;-24485.88;5051836;28;20167;-66
2022/09/17 07:08:55;;;;;;;2.40;1.80;;;;;;;24.37;nan;-24493.03;5051952;28;20174;-66
2022/09/17 07:11:20;;;;;;;3.90;2.33;;;;;;;24.42;nan;-24494.44;5051861;28;20189;-70
2022/09/17 07:13:46;;;;;;;4.95;2.15;;;;;;;24.13;nan;-24486.44;5052232;28;20291;-70
2022/09/17 07:16:11;;;;;;;2.65;1.92;;;;;;;24.62;nan;-24499.81;5051541;28;20195;-70
2022/09/17 07:18:37;;;;;;;5.93;2.28;;;;;;;24.99;nan;-24509.84;5050943;28;20175;-66
2022/09/17 07:21:05;;;;;;;2.60;1.90;;;;;;;25.05;nan;-24511.66;5051691;28;20174;-69
2022/09/17 07:23:32;;;;;;;4.50;2.58;;;;;;;25.20;nan;-24515.63;5050660;28;20178;-66
2022/09/17 07:26:00;;;;;;;4.07;2.22;;;;;;;24.99;nan;-24510.00;5051219;28;20179;-68
2022/09/17 07:28:26;;;;;;;4.13;2.20;;;;;;;24.51;nan;-24496.91;5051387;28;20228;-63
2022/09/17 07:30:52;;;;;;;4.68;2.30;;;;;;;24.27;nan;-24490.16;5051228;28;20193;-63
2022/09/17 07:33:23;;;;;;;2.90;2.00;;;;;;;24.79;nan;-24504.47;5051324;28;20241;-64
2022/09/17 07:35:57;;;;;;;11.55;2.45;;;;;;;24.55;nan;-24498.00;5051455;28;20159;-64
2022/09/17 07:38:23;;;;;;;2.70;1.85;;;;;;;24.27;nan;-24490.28;5051269;28;20167;-62
2022/09/17 07:40:54;;;;;;;4.60;2.15;;;;;;;24.55;nan;-24498.00;5051636;28;20589;-63
2022/09/17 07:43:20;;;;;;;3.90;2.13;;;;;;;24.83;nan;-24505.59;5051041;28;20585;-63
2022/09/17 07:45:45;;;;;;;4.47;2.00;;;;;;;25.19;nan;-24515.22;5050719;28;20171;-63
2022/09/17 07:48:10;;;;;;;3.17;1.83;;;;;;;25.49;nan;-24523.47;5051167;28;20236;-64
2022/09/17 07:50:36;;;;;;;2.58;1.80;;;;;;;25.69;nan;-24528.84;5050919;28;20166;-64
2022/09/17 07:53:03;;;;;;;2.00;1.65;;;;;;;25.62;nan;-24526.94;5051067;28;20750;-62
2022/09/17 07:55:28;;;;;;;2.65;1.85;;;;;;;25.85;nan;-24533.38;5051246;28;20178;-63
2022/09/17 07:57:54;;;;;;;4.60;2.20;;;;;;;25.82;nan;-24532.56;5051107;28;20637;-63
2022/09/17 08:00:20;;;;;;;5.43;2.10;;;;;;;25.97;nan;-24536.41;5050716;28;20166;-64
2022/09/17 08:02:52;;;;;;;6.45;1.90;;;;;;;25.80;nan;-24532.00;5050723;28;20218;-64
2022/09/17 08:05:17;;;;;;;3.35;1.95;;;;;;;25.12;nan;-24513.31;5051264;28;20223;-63
2022/09/17 08:07:43;;;;;;;3.45;1.73;;;;;;;25.94;nan;-24535.88;5050925;28;20572;-64
2022/09/17 08:10:08;;;;;;;5.40;2.38;;;;;;;26.27;nan;-24544.78;5050852;28;20170;-63
2022/09/17 08:12:33;;;;;;;2.58;1.55;;;;;;;26.49;nan;-24550.69;5050592;28;20179;-64
2022/09/17 08:14:59;;;;;;;4.07;1.70;;;;;;;26.68;nan;-24555.91;5050666;28;20206;-64
2022/09/17 08:17:24;;;;;;;2.30;1.65;;;;;;;25.58;nan;-24525.97;5050642;28;20254;-65
2022/09/17 08:19:50;;;;;;;3.10;2.10;;;;;;;25.98;nan;-24536.69;5032871;28;20183;-66
2022/09/17 08:22:15;;;;;;;2.55;1.60;;;;;;;26.23;nan;-24543.69;5051293;28;20182;-64
2022/09/17 08:24:41;;;;;;;4.45;1.98;;;;;;;26.59;nan;-24553.31;5051156;28;20177;-64
2022/09/17 08:27:06;;;;;;;2.65;1.58;;;;;;;26.65;nan;-24554.97;5051141;28;20518;-64
2022/09/17 08:29:32;;;;;;;3.05;1.80;;;;;;;26.69;nan;-24556.19;5032944;28;20182;-64
2022/09/17 08:31:57;;;;;;;2.38;1.80;;;;;;;26.63;nan;-24554.53;5051047;28;20245;-65
2022/09/17 08:34:23;;;;;;;5.53;2.70;;;;;;;27.24;nan;-24571.00;5051432;28;20211;-64
2022/09/17 08:36:48;;;;;;;4.05;2.33;;;;;;;27.33;nan;-24573.34;5054420;28;20186;-66
2022/09/17 08:39:14;;;;;;;4.63;2.10;;;;;;;27.48;nan;-24577.44;5054727;28;20178;-66
2022/09/17 08:42:01;;;;;;;2.83;2.00;;;;;;;27.77;nan;-24585.25;5054915;28;20182;-64
2022/09/17 08:44:46;;;;;;;3.95;2.20;;;;;;;28.01;nan;-24591.97;5054254;28;20229;-64
2022/09/17 08:47:14;;;;;;;2.92;2.00;;;;;;;27.96;nan;-24590.59;5054212;28;20219;-63
2022/09/17 08:49:57;;;;;;;2.50;1.98;;;;;;;27.61;nan;-24581.00;5054455;28;20202;-64
2022/09/17 08:52:44;;;;;;;4.10;2.10;;;;;;;27.63;nan;-24581.56;5054293;28;20170;-65
2022/09/17 08:55:30;;;;;;;4.28;2.42;;;;;;;27.54;nan;-24579.09;5054474;28;20209;-66
2022/09/17 08:58:01;;;;;;;3.03;1.80;;;;;;;27.77;nan;-24585.41;5054304;28;20183;-63
2022/09/17 09:00:48;;;;;;;3.05;1.95;;;;;;;27.80;nan;-24586.22;5054513;28;20186;-64
2022/09/17 09:03:30;;;;;;;5.22;2.38;;;;;;;28.20;nan;-24596.91;5054366;28;20222;-64
2022/09/17 09:05:57;;;;;;;4.18;2.20;;;;;;;28.31;nan;-24599.91;5054099;28;20220;-66
2022/09/17 09:08:44;;;;;;;3.72;2.05;;;;;;;28.65;nan;-24609.06;5054133;28;20182;-66
2022/09/17 09:11:16;;;;;;;3.33;1.92;;;;;;;28.54;nan;-24606.22;5053952;28;20159;-63
2022/09/17 09:13:57;;;;;;;2.63;1.70;;;;;;;28.43;nan;-24603.19;5053863;28;20202;-65
2022/09/17 09:16:29;;;;;;;2.05;1.67;;;;;;;28.66;nan;-24609.50;5053958;28;20170;-66
2022/09/17 09:19:03;;;;;;;5.53;2.00;;;;;;;28.88;nan;-24615.38;5054346;28;20308;-66
2022/09/17 09:21:39;;;;;;;5.53;2.10;;;;;;;28.95;nan;-24617.28;5035875;28;20201;-66
2022/09/17 09:24:24;;;;;;;2.08;1.70;;;;;;;29.12;nan;-24621.94;5053987;28;20224;-65
2022/09/17 09:27:04;;;;;;;4.95;1.88;;;;;;;29.36;nan;-24628.34;5053669;28;20255;-66
2022/09/17 09:30:05;;;;;;;2.72;1.85;;;;;;;29.36;nan;-24628.34;5054151;28;20609;-64
2022/09/17 09:32:56;;;;;;;4.47;1.83;;;;;;;29.32;nan;-24627.41;5053702;28;20178;-64
2022/09/17 09:35:22;;;;;;;2.35;1.70;;;;;;;29.38;nan;-24628.91;5035845;28;20174;-64
2022/09/17 09:38:15;;;;;;;6.70;2.55;;;;;;;29.75;nan;-24638.84;5053590;28;20169;-65
2022/09/17 09:40:44;;;;;;;2.90;1.85;;;;;;;29.57;nan;-24634.09;5049296;28;20247;-66
2022/09/17 09:43:43;;;;;;;4.82;1.90;;;;;;;29.99;nan;-24645.28;5053436;28;20166;-64
2022/09/17 09:46:39;;;;;;;3.00;1.95;;;;;;;30.06;nan;-24647.19;5052230;28;20218;-64
2022/09/17 09:49:22;;;;;;;6.03;2.63;;;;;;;29.16;nan;-24622.88;5053285;28;20186;-66
2022/09/17 09:51:57;;;;;;;2.15;1.70;;;;;;;29.11;nan;-24621.53;5052969;28;20710;-63
2022/09/17 09:54:49;;;;;;;4.75;1.73;;;;;;;29.36;nan;-24628.34;5053302;28;20214;-66
2022/09/17 09:58:10;;;;;;;3.42;1.83;;;;;;;28.87;nan;-24615.22;5053229;28;20180;-64
2022/09/17 10:00:42;;;;;;;2.05;1.70;;;;;;;28.95;nan;-24617.28;4972080;28;20185;-64
2022/09/17 10:03:27;;;;;;;1.92;1.60;;;;;;;29.49;nan;-24631.91;5038432;28;20222;-63
2022/09/17 10:06:01;;;;;;;2.50;1.65;;;;;;;29.83;nan;-24641.19;5051769;28;20570;-64
2022/09/17 10:08:29;;;;;;;3.70;1.92;;;;;;;29.27;nan;-24626.03;5052157;28;20171;-64
2022/09/17 10:10:54;;;;;;;4.75;2.60;;;;;;;29.69;nan;-24637.22;5052809;28;20170;-63
2022/09/17 10:13:20;;;;;;;2.75;1.98;;;;;;;29.93;nan;-24643.63;5051176;28;20205;-63
2022/09/17 10:15:46;;;;;;;2.80;1.67;;;;;;;29.69;nan;-24637.34;5033118;28;20657;-65
2022/09/17 10:18:16;;;;;;;3.30;1.85;;;;;;;29.20;nan;-24623.97;5051266;28;20162;-64
2022/09/17 10:20:58;;;;;;;4.00;2.05;;;;;;;29.22;nan;-24624.66;5051654;28;20181;-65
2022/09/17 10:23:28;;;;;;;2.55;1.80;;;;;;;29.34;nan;-24627.81;5050931;28;20620;-64
2022/09/17 10:25:54;;;;;;;2.88;1.90;;;;;;;29.26;nan;-24625.63;5050980;28;20228;-64
2022/09/17 10:28:49;;;;;;;2.90;2.35;;;;;;;27.61;nan;-24581.00;5052919;28;20273;-62
2022/09/17 10:31:15;;;;;;;4.40;2.40;;;;;;;26.71;nan;-24556.59;5052986;28;20237;-62
2022/09/17 10:34:02;;;;;;;6.70;2.10;;;;;;;25.07;nan;-24512.06;5052895;28;20237;-62
2022/09/17 10:36:45;;;;;;;5.78;2.63;;;;;;;24.77;nan;-24503.78;5053134;28;20253;-67
2022/09/17 10:39:25;;;;;;;4.40;2.20;;;;;;;24.54;nan;-24497.59;5053069;28;20264;-65
2022/09/17 10:42:00;;;;;;;3.17;2.17;;;;;;;24.10;nan;-24485.75;5053030;28;20171;-66
2022/09/17 10:44:28;;;;;;;3.03;1.80;;;;;;;24.41;nan;-24494.16;5034807;28;20186;-66
2022/09/17 10:47:00;;;;;;;3.33;2.25;;;;;;;24.02;nan;-24483.53;5052609;28;20175;-65
2022/09/17 10:49:48;;;;;;;4.47;2.58;;;;;;;24.14;nan;-24486.69;5052737;28;20173;-65
2022/09/17 10:52:31;;;;;;;4.15;2.78;;;;;;;24.35;nan;-24492.50;5052973;28;20652;-67
2022/09/17 10:55:32;;;;;;;5.78;2.28;;;;;;;24.75;nan;-24503.25;5052187;28;20248;-66
2022/09/17 10:58:06;;;;;;;5.47;2.50;;;;;;;24.91;nan;-24507.66;5052932;28;20245;-67
2022/09/17 11:00:52;;;;;;;5.75;2.55;;;;;;;25.05;nan;-24511.50;5052401;28;20166;-65
2022/09/17 11:03:21;;;;;;;5.75;2.65;;;;;;;24.49;nan;-24496.34;5034225;28;20857;-67
2022/09/17 11:06:08;;;;;;;5.43;2.75;;;;;;;24.75;nan;-24503.38;5052268;28;20224;-67
2022/09/17 11:09:11;;;;;;;4.25;2.40;;;;;;;24.43;nan;-24494.56;5052328;28;20240;-66
2022/09/17 11:11:59;;;;;;;3.15;2.20;;;;;;;24.42;nan;-24494.44;5051256;28;20565;-66
2022/09/17 11:14:30;;;;;;;3.40;2.60;;;;;;;24.27;nan;-24490.16;5052000;28;20210;-65
2022/09/17 11:17:12;;;;;;;5.43;2.38;;;;;;;24.15;nan;-24486.97;5052213;28;20696;-67
2022/09/17 11:20:01;;;;;;;2.53;1.95;;;;;;;24.07;nan;-24484.78;5052083;28;20651;-66
2022/09/17 11:22:54;;;;;;;3.65;1.88;;;;;;;23.18;nan;-24460.47;5051939;28;20171;-63
2022/09/17 11:25:42;;;;;;;3.72;1.80;;;;;;;22.26;nan;-24435.44;5052384;28;20171;-62
2022/09/17 11:28:20;;;;;;;4.45;1.30;;;;;;;21.26;nan;-24408.03;5012548;28;20222;-62
2022/09/17 11:31:07;;;;;;;5.13;1.33;;;;;;;21.25;nan;-24407.59;5012945;28;20251;-62
2022/09/17 11:33:38;;;;;;;1.92;0.80;;;;;;;20.92;nan;-24398.59;5030296;28;20615;-60
2022/09/17 11:36:12;;;;;;;2.45;1.35;;;;;;;20.38;nan;-24383.75;5030410;28;20253;-62
2022/09/17 11:38:49;;;;;;;1.38;1.15;;;;;;;20.71;nan;-24393.03;5030616;28;20556;-61
2022/09/17 11:41:42;;;;;;;1.20;1.10;;;;;;;20.62;nan;-24390.53;5031046;28;20668;-61
2022/09/17 11:44:13;;;;;;;1.83;1.38;;;;;;;20.20;nan;-24379.00;5030429;28;20180;-60
2022/09/17 11:46:47;;;;;;;1.35;1.15;;;;;;;20.27;nan;-24380.97;5030685;28;20179;-62
2022/09/17 11:49:33;;;;;;;2.50;1.15;;;;;;;20.66;nan;-24391.50;5032557;28;20194;-61
2022/09/17 11:52:07;;;;;;;1.27;1.15;;;;;;;20.51;nan;-24387.34;5032360;28;20190;-62
2022/09/17 11:54:54;;;;;;;1.40;1.23;;;;;;;21.15;nan;-24404.97;5031859;28;20563;-62
2022/09/17 11:57:24;;;;;;;1.65;0.85;;;;;;;21.23;nan;-24407.19;5030006;28;20171;-61
2022/09/17 12:00:04;;;;;;;1.48;1.10;;;;;;;21.26;nan;-24408.03;5030732;28;20179;-61
2022/09/17 12:02:41;;;;;;;1.23;1.00;;;;;;;21.53;nan;-24415.38;5030165;28;20234;-61
2022/09/17 12:05:21;;;;;;;2.92;1.45;;;;;;;22.20;nan;-24433.66;5030606;28;20175;-61